Time;durP1;ratioP1;P1;durP2;ratioP2;P2;SDS_P1;SDS_P2;PMS_P1;PMS_P2;Temp;Humidity;BMP_temperature;BMP_pressure;BME280_temperature;BME280_humidity;BME280_pressure;Samples;Min_cycle;Max_cycle;Signal;HPM_P1;HPM_P2
2024/01/28 00:00:38;;;;;;;9.13;5.72;;;10.60;81.90;;;;;;5015167;28;20048;-68
2024/01/28 00:03:04;;;;;;;11.52;6.00;;;10.60;81.90;;;;;;4985602;28;20501;-68
2024/01/28 00:05:29;;;;;;;11.55;5.97;;;10.60;81.90;;;;;;5018392;28;20038;-68
2024/01/28 00:07:55;;;;;;;10.18;5.35;;;10.60;81.80;;;;;;5040196;28;20124;-68
2024/01/28 00:10:21;;;;;;;9.50;5.28;;;10.60;81.90;;;;;;5022754;28;20069;-68
2024/01/28 00:12:47;;;;;;;9.38;5.53;;;10.60;81.90;;;;;;5017741;28;20057;-68
2024/01/28 00:15:12;;;;;;;11.65;5.10;;;10.50;81.80;;;;;;5012601;28;20285;-69
2024/01/28 00:17:38;;;;;;;10.32;5.32;;;10.60;81.80;;;;;;5012917;28;20045;-69
2024/01/28 00:20:05;;;;;;;8.93;4.97;;;10.50;81.70;;;;;;5017054;28;20041;-69
2024/01/28 00:22:31;;;;;;;7.45;5.35;;;10.50;81.70;;;;;;5042808;28;20049;-69
2024/01/28 00:24:57;;;;;;;9.20;5.95;;;10.50;81.70;;;;;;5033620;28;20132;-69
2024/01/28 00:27:23;;;;;;;12.52;6.10;;;10.50;81.70;;;;;;5018128;28;20194;-69
2024/01/28 00:29:49;;;;;;;14.13;5.97;;;10.50;81.70;;;;;;5013419;28;20509;-68
2024/01/28 00:32:15;;;;;;;8.20;5.47;;;10.60;81.80;;;;;;5014009;28;20559;-69
2024/01/28 00:34:41;;;;;;;13.02;6.28;;;10.50;81.70;;;;;;5029365;28;20046;-69
2024/01/28 00:37:06;;;;;;;12.30;5.57;;;10.50;81.70;;;;;;5006305;28;20072;-69
2024/01/28 00:39:32;;;;;;;9.60;4.50;;;10.50;81.70;;;;;;4987808;28;20037;-69
2024/01/28 00:41:58;;;;;;;10.45;4.85;;;10.50;81.70;;;;;;4992997;28;20115;-68
2024/01/28 00:44:24;;;;;;;10.70;5.40;;;10.50;81.70;;;;;;4987540;28;20048;-68
2024/01/28 00:46:49;;;;;;;7.85;4.90;;;10.50;81.70;;;;;;5011250;28;20041;-68
2024/01/28 00:49:15;;;;;;;8.02;5.32;;;10.40;82.40;;;;;;5019611;28;20057;-68
2024/01/28 00:51:41;;;;;;;8.90;5.13;;;10.50;81.70;;;;;;5016635;28;20033;-68
2024/01/28 00:54:07;;;;;;;10.75;5.25;;;10.50;81.70;;;;;;5015378;28;20045;-69
2024/01/28 00:56:33;;;;;;;11.15;5.47;;;10.50;81.70;;;;;;4998877;28;20052;-69
2024/01/28 00:58:59;;;;;;;8.57;5.75;;;10.50;82.50;;;;;;4995137;28;20072;-69
2024/01/28 01:01:25;;;;;;;10.00;5.15;;;10.50;81.60;;;;;;5058675;28;20076;-68
2024/01/28 01:03:50;;;;;;;8.32;5.15;;;10.50;81.50;;;;;;5014511;28;20041;-69
2024/01/28 01:06:16;;;;;;;8.93;6.13;;;10.40;82.20;;;;;;4999649;28;20037;-69
2024/01/28 01:08:41;;;;;;;8.05;4.95;;;10.40;81.30;;;;;;5013804;28;20041;-68
2024/01/28 01:11:07;;;;;;;9.40;4.35;;;10.50;81.40;;;;;;5024773;28;20412;-69
2024/01/28 01:13:33;;;;;;;12.35;5.90;;;10.40;81.40;;;;;;5030977;28;20080;-68
2024/01/28 01:15:59;;;;;;;9.13;5.75;;;10.40;81.40;;;;;;4993507;28;20052;-69
2024/01/28 01:18:25;;;;;;;10.63;6.32;;;10.40;81.40;;;;;;4998678;28;20041;-68
2024/01/28 01:20:51;;;;;;;11.05;5.72;;;10.40;81.30;;;;;;5006652;28;20037;-69
2024/01/28 01:23:17;;;;;;;9.95;5.07;;;10.40;81.20;;;;;;5018830;28;20041;-69
2024/01/28 01:25:42;;;;;;;10.68;5.25;;;10.40;81.30;;;;;;5020985;28;20571;-69
2024/01/28 01:28:08;;;;;;;7.85;4.53;;;10.40;81.40;;;;;;5020961;28;20053;-69
2024/01/28 01:30:34;;;;;;;10.23;5.43;;;10.40;81.50;;;;;;4996596;28;20068;-68
2024/01/28 01:32:59;;;;;;;9.52;5.45;;;10.40;82.10;;;;;;5012195;28;20545;-69
2024/01/28 01:35:26;;;;;;;8.38;5.82;;;10.40;81.40;;;;;;5026838;28;20125;-69
2024/01/28 01:37:54;;;;;;;6.45;5.00;;;10.40;81.30;;;;;;5006838;28;20378;-68
2024/01/28 01:40:20;;;;;;;8.70;5.35;;;10.40;81.30;;;;;;5020883;28;20374;-69
2024/01/28 01:42:46;;;;;;;10.45;4.57;;;10.30;81.40;;;;;;5024890;28;20041;-69
2024/01/28 01:45:12;;;;;;;9.60;5.13;;;10.30;81.40;;;;;;4990907;28;20045;-69
2024/01/28 01:47:38;;;;;;;10.05;5.10;;;10.30;81.40;;;;;;5009298;28;20076;-69
2024/01/28 01:50:04;;;;;;;9.70;5.03;;;10.30;81.30;;;;;;5011202;28;20500;-68
2024/01/28 01:52:30;;;;;;;8.07;5.03;;;10.30;81.40;;;;;;5005153;28;20068;-69
2024/01/28 01:54:56;;;;;;;10.43;5.47;;;10.30;81.40;;;;;;4998621;28;20045;-69
2024/01/28 01:57:22;;;;;;;10.13;5.03;;;10.40;81.40;;;;;;5011054;28;20461;-69
2024/01/28 01:59:47;;;;;;;7.95;4.50;;;10.30;81.30;;;;;;4999161;28;20562;-69
2024/01/28 02:02:13;;;;;;;8.48;4.55;;;10.30;81.40;;;;;;5014395;28;20087;-69
2024/01/28 02:04:39;;;;;;;8.43;4.78;;;10.30;81.40;;;;;;4997760;28;20077;-69
2024/01/28 02:07:05;;;;;;;7.05;4.82;;;10.30;81.30;;;;;;5013432;28;20075;-69
2024/01/28 02:09:31;;;;;;;9.30;5.68;;;10.30;81.30;;;;;;5030353;28;20038;-69
2024/01/28 02:11:57;;;;;;;8.07;5.40;;;10.30;81.20;;;;;;5014215;28;20037;-69
2024/01/28 02:14:29;;;;;;;8.18;5.05;;;10.30;81.20;;;;;;4998289;28;20041;-69
2024/01/28 02:16:55;;;;;;;9.45;5.57;;;10.30;81.10;;;;;;5010169;28;20046;-69
2024/01/28 02:19:21;;;;;;;11.57;5.32;;;10.30;80.80;;;;;;4998264;28;20157;-69
2024/01/28 02:21:47;;;;;;;10.27;5.05;;;10.30;80.80;;;;;;5012862;28;20041;-69
2024/01/28 02:24:13;;;;;;;9.73;5.93;;;10.30;80.80;;;;;;4998326;28;20048;-69
2024/01/28 02:26:42;;;;;;;8.90;4.50;;;10.30;80.80;;;;;;5010516;28;20066;-69
2024/01/28 02:29:07;;;;;;;10.85;5.25;;;10.30;80.80;;;;;;5018489;28;20192;-69
2024/01/28 02:31:33;;;;;;;14.38;6.10;;;10.30;80.80;;;;;;5011081;28;20500;-69
2024/01/28 02:33:59;;;;;;;10.65;5.65;;;10.30;80.90;;;;;;5009572;28;20459;-69
2024/01/28 02:36:27;;;;;;;6.32;4.68;;;10.30;80.80;;;;;;5013042;28;20050;-69
2024/01/28 02:38:54;;;;;;;11.55;5.40;;;10.30;80.90;;;;;;5012081;28;20038;-69
2024/01/28 02:41:20;;;;;;;10.00;5.60;;;10.30;80.90;;;;;;4990726;28;20037;-69
2024/01/28 02:43:45;;;;;;;10.50;6.50;;;10.30;80.90;;;;;;5012965;28;20053;-69
2024/01/28 02:46:11;;;;;;;8.45;5.32;;;10.30;80.80;;;;;;5012410;28;20531;-69
2024/01/28 02:48:37;;;;;;;11.32;6.28;;;10.20;80.70;;;;;;5012695;28;20237;-69
2024/01/28 02:51:02;;;;;;;8.35;5.05;;;10.20;80.50;;;;;;5008691;28;20044;-69
2024/01/28 02:53:28;;;;;;;9.77;5.97;;;10.20;80.60;;;;;;4996090;28;20037;-69
2024/01/28 02:55:59;;;;;;;8.52;5.47;;;10.20;80.50;;;;;;5011784;28;20073;-69
2024/01/28 02:58:25;;;;;;;11.32;5.18;;;10.20;80.50;;;;;;5012930;28;20091;-69
2024/01/28 03:00:51;;;;;;;13.20;7.22;;;10.20;80.50;;;;;;5029615;28;20033;-69
2024/01/28 03:03:17;;;;;;;10.15;5.93;;;10.20;80.60;;;;;;5010782;28;20039;-69
2024/01/28 03:05:42;;;;;;;9.55;5.43;;;10.20;80.70;;;;;;5012754;28;20136;-69
2024/01/28 03:08:08;;;;;;;11.70;6.38;;;10.20;80.60;;;;;;4989688;28;20067;-69
2024/01/28 03:10:34;;;;;;;9.65;5.32;;;10.20;80.60;;;;;;5011883;28;20048;-68
2024/01/28 03:13:00;;;;;;;10.23;5.38;;;10.20;80.60;;;;;;5021776;28;20045;-69
2024/01/28 03:15:25;;;;;;;11.65;6.40;;;10.20;80.60;;;;;;5011972;28;20041;-68
2024/01/28 03:17:51;;;;;;;11.52;6.78;;;10.20;80.70;;;;;;5029294;28;20073;-69
2024/01/28 03:20:17;;;;;;;11.27;6.85;;;10.20;80.50;;;;;;5027781;28;20521;-69
2024/01/28 03:22:42;;;;;;;10.48;6.70;;;10.20;80.40;;;;;;4979959;28;20041;-69
2024/01/28 03:25:08;;;;;;;12.45;6.13;;;10.10;80.20;;;;;;5028244;28;20046;-69
2024/01/28 03:27:35;;;;;;;10.88;6.45;;;10.20;81.10;;;;;;5010259;28;20093;-69
2024/01/28 03:30:01;;;;;;;8.68;5.95;;;10.10;80.20;;;;;;5012128;28;20037;-69
2024/01/28 03:32:27;;;;;;;9.00;6.03;;;10.10;80.20;;;;;;5012716;28;20037;-68
2024/01/28 03:34:52;;;;;;;11.30;5.82;;;10.10;80.40;;;;;;5011141;28;20050;-69
2024/01/28 03:37:18;;;;;;;10.93;6.05;;;10.20;80.40;;;;;;4995948;28;20489;-69
2024/01/28 03:39:43;;;;;;;11.65;6.57;;;10.10;81.10;;;;;;5016016;28;20041;-69
2024/01/28 03:42:10;;;;;;;12.82;7.05;;;10.10;80.40;;;;;;5012500;28;20072;-69
2024/01/28 03:44:35;;;;;;;9.23;5.22;;;10.10;80.40;;;;;;5011880;28;20034;-69
2024/01/28 03:47:01;;;;;;;11.32;5.68;;;10.10;80.30;;;;;;5013172;28;20386;-69
2024/01/28 03:49:27;;;;;;;12.20;6.75;;;10.10;80.40;;;;;;4974605;28;20037;-69
2024/01/28 03:51:53;;;;;;;11.02;6.82;;;10.10;80.30;;;;;;5008453;28;20108;-69
2024/01/28 03:54:19;;;;;;;10.45;6.25;;;10.10;80.10;;;;;;5019091;28;20535;-69
2024/01/28 03:56:44;;;;;;;11.68;6.75;;;10.10;80.10;;;;;;5003312;28;20269;-69
2024/01/28 03:59:11;;;;;;;11.85;6.70;;;10.10;80.00;;;;;;5032364;28;20136;-69
2024/01/28 04:01:36;;;;;;;7.72;5.93;;;10.10;80.10;;;;;;4982909;28;20043;-69
2024/01/28 04:04:02;;;;;;;8.32;6.22;;;10.10;80.00;;;;;;5007694;28;20160;-69
2024/01/28 04:06:28;;;;;;;12.93;6.88;;;10.00;80.10;;;;;;5010942;28;20045;-69
2024/01/28 04:08:55;;;;;;;11.45;6.05;;;10.00;80.00;;;;;;5032075;28;20056;-69
2024/01/28 04:11:26;;;;;;;9.60;6.15;;;10.10;80.10;;;;;;5049814;28;20060;-69
2024/01/28 04:13:53;;;;;;;16.25;6.63;;;10.10;80.20;;;;;;5017581;28;20041;-69
2024/01/28 04:16:20;;;;;;;10.77;5.75;;;10.00;80.30;;;;;;5015541;28;20069;-69
2024/01/28 04:18:46;;;;;;;11.30;6.90;;;10.00;81.10;;;;;;5015236;28;20048;-69
2024/01/28 04:21:12;;;;;;;8.98;5.55;;;10.00;80.30;;;;;;5015327;28;20044;-69
2024/01/28 04:23:39;;;;;;;8.50;5.10;;;10.10;80.20;;;;;;5011944;28;20109;-69
2024/01/28 04:26:05;;;;;;;7.47;5.97;;;10.00;80.20;;;;;;5007202;28;20061;-69
2024/01/28 04:28:31;;;;;;;9.85;5.82;;;10.00;80.40;;;;;;5032523;28;20053;-69
2024/01/28 04:30:58;;;;;;;9.30;6.57;;;10.00;80.40;;;;;;4978869;28;20452;-69
2024/01/28 04:33:24;;;;;;;7.38;5.47;;;10.00;80.30;;;;;;4985098;28;20408;-69
2024/01/28 04:35:50;;;;;;;9.25;6.32;;;10.10;80.30;;;;;;5027001;28;20050;-69
2024/01/28 04:38:15;;;;;;;9.77;4.68;;;10.10;80.30;;;;;;5014613;28;20037;-69
2024/01/28 04:40:41;;;;;;;10.57;6.60;;;10.00;80.30;;;;;;5031682;28;20399;-69
2024/01/28 04:43:07;;;;;;;9.27;5.60;;;10.00;80.40;;;;;;5014336;28;20042;-69
2024/01/28 04:45:32;;;;;;;13.20;6.05;;;10.00;80.40;;;;;;5031568;28;20041;-69
2024/01/28 04:47:58;;;;;;;9.48;4.72;;;10.00;80.30;;;;;;5014295;28;20049;-69
2024/01/28 04:50:24;;;;;;;8.48;4.65;;;10.00;80.30;;;;;;5032449;28;20045;-69
2024/01/28 04:52:51;;;;;;;11.57;6.07;;;10.00;80.30;;;;;;5015281;28;20087;-69
2024/01/28 04:55:16;;;;;;;9.80;6.13;;;10.00;80.20;;;;;;5014470;28;20050;-69
2024/01/28 04:57:42;;;;;;;6.60;5.05;;;10.00;80.20;;;;;;5015139;28;20034;-69
2024/01/28 05:00:10;;;;;;;9.70;5.55;;;10.00;80.00;;;;;;4998537;28;20508;-69
2024/01/28 05:02:37;;;;;;;8.30;5.18;;;10.00;80.00;;;;;;5014704;28;20033;-69
2024/01/28 05:05:02;;;;;;;7.75;5.15;;;10.00;79.90;;;;;;5010914;28;20630;-69
2024/01/28 05:07:29;;;;;;;7.85;5.28;;;10.00;79.90;;;;;;4994130;28;20041;-69
2024/01/28 05:09:55;;;;;;;9.77;5.50;;;10.00;79.90;;;;;;5010359;28;20045;-69
2024/01/28 05:12:20;;;;;;;9.55;5.90;;;10.00;80.00;;;;;;4993083;28;20037;-69
2024/01/28 05:14:46;;;;;;;11.68;5.28;;;10.00;79.90;;;;;;5011264;28;20046;-69
2024/01/28 05:17:12;;;;;;;10.82;5.03;;;10.00;79.90;;;;;;5011966;28;20030;-69
2024/01/28 05:19:37;;;;;;;10.57;5.10;;;9.90;79.90;;;;;;5010287;28;20120;-69
2024/01/28 05:22:04;;;;;;;9.18;5.93;;;10.00;79.90;;;;;;5027774;28;20061;-69
2024/01/28 05:24:30;;;;;;;9.70;5.60;;;9.90;79.90;;;;;;5010825;28;20551;-69
2024/01/28 05:26:55;;;;;;;8.73;4.75;;;9.90;79.70;;;;;;5028192;28;20256;-69
2024/01/28 05:29:21;;;;;;;10.55;6.43;;;9.90;79.90;;;;;;5012086;28;20183;-69
2024/01/28 05:31:48;;;;;;;7.53;5.47;;;9.90;79.70;;;;;;5012465;28;20445;-68
2024/01/28 05:34:14;;;;;;;9.35;5.70;;;9.90;79.60;;;;;;5012974;28;20045;-68
2024/01/28 05:36:40;;;;;;;7.75;5.47;;;9.90;79.70;;;;;;5009412;28;20533;-69
2024/01/28 05:39:06;;;;;;;8.15;5.70;;;9.90;79.70;;;;;;5029608;28;20037;-69
2024/01/28 05:41:32;;;;;;;12.95;6.32;;;9.90;79.60;;;;;;5014588;28;20444;-69
2024/01/28 05:43:58;;;;;;;14.88;6.13;;;9.90;79.70;;;;;;4997390;28;20045;-69
2024/01/28 05:46:23;;;;;;;10.25;6.25;;;9.90;79.60;;;;;;5012326;28;20403;-68
2024/01/28 05:48:49;;;;;;;14.65;6.53;;;9.90;79.60;;;;;;5012184;28;20446;-69
2024/01/28 05:51:15;;;;;;;9.80;5.97;;;9.90;79.60;;;;;;5013477;28;20049;-68
2024/01/28 05:53:40;;;;;;;8.18;5.45;;;9.90;79.60;;;;;;5014903;28;20103;-68
2024/01/28 05:56:06;;;;;;;12.63;6.40;;;9.90;79.60;;;;;;5013392;28;20501;-69
2024/01/28 05:58:32;;;;;;;9.52;6.25;;;9.90;79.50;;;;;;5030635;28;20033;-69
2024/01/28 06:01:02;;;;;;;11.02;5.32;;;9.90;79.50;;;;;;5013386;28;20045;-69
2024/01/28 06:03:28;;;;;;;8.90;5.30;;;9.80;79.40;;;;;;5030569;28;20058;-69
2024/01/28 06:05:53;;;;;;;12.73;6.18;;;9.90;79.40;;;;;;5013708;28;20179;-69
2024/01/28 06:08:19;;;;;;;8.68;5.40;;;9.80;79.20;;;;;;5013750;28;20042;-69
2024/01/28 06:10:44;;;;;;;7.97;5.35;;;9.90;79.20;;;;;;5013396;28;20041;-69
2024/01/28 06:13:10;;;;;;;11.40;6.90;;;9.80;79.20;;;;;;5029239;28;20042;-69
2024/01/28 06:15:36;;;;;;;8.40;5.40;;;9.90;79.30;;;;;;5029374;28;20045;-69
2024/01/28 06:18:02;;;;;;;7.13;5.20;;;9.80;79.30;;;;;;4996683;28;20044;-68
2024/01/28 06:20:27;;;;;;;9.27;6.05;;;9.80;79.30;;;;;;5029594;28;20049;-69
2024/01/28 06:22:53;;;;;;;9.50;5.85;;;9.80;79.30;;;;;;5013563;28;20037;-69
2024/01/28 06:25:19;;;;;;;9.57;6.22;;;9.80;79.30;;;;;;5012634;28;20125;-69
2024/01/28 06:27:45;;;;;;;9.32;5.90;;;9.80;79.40;;;;;;4997002;28;20037;-69
2024/01/28 06:30:11;;;;;;;9.93;5.85;;;9.80;79.30;;;;;;5012092;28;20043;-69
2024/01/28 06:32:37;;;;;;;8.15;5.03;;;9.80;79.30;;;;;;4996523;28;20063;-69
2024/01/28 06:35:03;;;;;;;10.45;6.38;;;9.80;79.30;;;;;;5013622;28;20505;-69
2024/01/28 06:37:29;;;;;;;9.80;6.35;;;9.80;79.30;;;;;;5011796;28;20041;-69
2024/01/28 06:39:55;;;;;;;9.55;5.57;;;9.80;79.30;;;;;;5012934;28;20044;-69
2024/01/28 06:42:20;;;;;;;10.93;6.40;;;9.80;79.30;;;;;;5015788;28;20661;-69
2024/01/28 06:44:47;;;;;;;10.00;6.15;;;9.80;79.20;;;;;;5012256;28;20053;-68
2024/01/28 06:47:12;;;;;;;9.07;5.57;;;9.80;79.20;;;;;;5011466;28;20096;-68
2024/01/28 06:49:38;;;;;;;9.52;5.75;;;9.80;79.10;;;;;;5012216;28;20458;-68
2024/01/28 06:52:04;;;;;;;11.32;6.13;;;9.80;79.10;;;;;;5009639;28;20040;-69
2024/01/28 06:54:30;;;;;;;8.43;5.65;;;9.70;79.00;;;;;;5009805;28;20436;-68
2024/01/28 06:56:56;;;;;;;9.60;6.15;;;9.70;79.10;;;;;;5012218;28;20231;-68
2024/01/28 06:59:22;;;;;;;8.13;6.22;;;9.70;79.20;;;;;;4980052;28;20033;-68
2024/01/28 07:01:47;;;;;;;10.60;6.03;;;9.80;79.20;;;;;;5009579;28;20125;-69
2024/01/28 07:04:13;;;;;;;9.40;5.43;;;9.70;79.10;;;;;;5021017;28;20120;-68
2024/01/28 07:06:39;;;;;;;9.95;5.40;;;9.80;79.20;;;;;;5013791;28;20121;-68
2024/01/28 07:09:05;;;;;;;10.88;6.63;;;9.80;79.10;;;;;;5011708;28;20049;-69
2024/01/28 07:11:31;;;;;;;9.70;6.18;;;9.70;79.70;;;;;;5011311;28;20473;-69
2024/01/28 07:13:56;;;;;;;10.50;5.78;;;9.70;78.90;;;;;;5024943;28;20137;-68
2024/01/28 07:16:22;;;;;;;8.90;5.50;;;9.70;78.80;;;;;;5047065;28;20148;-68
2024/01/28 07:18:49;;;;;;;9.73;5.95;;;9.70;78.90;;;;;;5028828;28;20045;-68
2024/01/28 07:21:15;;;;;;;9.70;5.60;;;9.70;79.00;;;;;;4996297;28;20038;-68
2024/01/28 07:23:41;;;;;;;8.35;5.82;;;9.70;79.00;;;;;;5012011;28;20099;-69
2024/01/28 07:26:09;;;;;;;10.18;5.93;;;9.70;79.00;;;;;;5012600;28;20057;-69
2024/01/28 07:28:35;;;;;;;8.70;5.15;;;9.70;78.90;;;;;;5027467;28;20072;-69
2024/01/28 07:31:01;;;;;;;10.35;6.20;;;9.70;78.90;;;;;;5012021;28;20077;-68
2024/01/28 07:33:26;;;;;;;10.52;5.45;;;9.70;78.80;;;;;;5013381;28;20069;-69
2024/01/28 07:35:52;;;;;;;7.22;5.40;;;9.60;78.70;;;;;;5011847;28;20038;-68
2024/01/28 07:38:17;;;;;;;9.30;5.25;;;9.60;78.70;;;;;;5010241;28;20030;-69
2024/01/28 07:40:43;;;;;;;10.30;5.93;;;9.60;78.70;;;;;;5012545;28;20184;-69
2024/01/28 07:43:09;;;;;;;9.95;6.50;;;9.60;78.70;;;;;;5014669;28;20061;-68
2024/01/28 07:45:37;;;;;;;7.22;5.20;;;9.60;78.60;;;;;;5030498;28;20116;-68
2024/01/28 07:48:03;;;;;;;9.05;6.30;;;9.60;78.60;;;;;;5003467;28;20084;-69
2024/01/28 07:50:28;;;;;;;13.77;5.80;;;9.60;78.60;;;;;;5001094;28;20386;-69
2024/01/28 07:52:54;;;;;;;8.27;5.25;;;9.60;78.70;;;;;;5015585;28;20045;-69
2024/01/28 07:55:20;;;;;;;12.80;5.78;;;9.60;78.70;;;;;;5028879;28;20176;-68
2024/01/28 07:57:45;;;;;;;9.10;6.03;;;9.60;78.70;;;;;;5014455;28;20048;-69
2024/01/28 08:00:12;;;;;;;7.53;5.30;;;9.60;78.70;;;;;;5016510;28;20042;-69
2024/01/28 08:02:37;;;;;;;8.73;5.30;;;9.60;78.70;;;;;;4982736;28;20369;-69
2024/01/28 08:05:03;;;;;;;7.55;4.88;;;9.60;78.70;;;;;;5032382;28;20096;-68
2024/01/28 08:07:29;;;;;;;8.32;5.03;;;9.60;78.70;;;;;;4999149;28;20104;-68
2024/01/28 08:09:55;;;;;;;8.23;5.53;;;9.60;78.70;;;;;;5044639;28;20034;-69
2024/01/28 08:12:20;;;;;;;10.60;5.05;;;9.60;78.50;;;;;;5032704;28;20631;-68
2024/01/28 08:14:46;;;;;;;8.73;5.25;;;9.60;78.60;;;;;;5015771;28;20049;-69
2024/01/28 08:17:12;;;;;;;8.85;5.82;;;9.60;78.60;;;;;;5016753;28;20404;-69
2024/01/28 08:19:51;;;;;;;11.32;5.97;;;9.60;78.60;;;;;;4998438;28;20528;-69
2024/01/28 08:22:17;;;;;;;9.13;5.28;;;9.60;78.60;;;;;;5031675;28;20041;-69
2024/01/28 08:24:42;;;;;;;7.60;5.53;;;9.60;78.60;;;;;;5015051;28;20053;-69
2024/01/28 08:27:08;;;;;;;7.55;4.85;;;9.60;78.60;;;;;;5014584;28;20320;-69
2024/01/28 08:29:34;;;;;;;7.95;4.70;;;9.60;78.70;;;;;;4996588;28;20037;-68
2024/01/28 08:31:59;;;;;;;9.00;4.72;;;9.60;78.70;;;;;;5014788;28;20068;-69
2024/01/28 08:34:25;;;;;;;6.68;4.75;;;9.60;78.70;;;;;;5011309;28;20034;-69
2024/01/28 08:36:51;;;;;;;9.85;4.75;;;9.60;78.70;;;;;;5014760;28;20096;-69
2024/01/28 08:39:16;;;;;;;7.03;4.70;;;9.60;78.70;;;;;;5012122;28;20069;-69
2024/01/28 08:41:42;;;;;;;7.00;4.70;;;9.60;78.70;;;;;;4997337;28;20037;-69
2024/01/28 08:44:09;;;;;;;7.00;4.40;;;9.60;78.70;;;;;;5014705;28;20045;-69
2024/01/28 08:46:38;;;;;;;7.03;4.72;;;9.60;78.70;;;;;;5012016;28;20391;-69
2024/01/28 08:49:03;;;;;;;6.43;4.28;;;9.60;78.70;;;;;;5015291;28;20120;-69
2024/01/28 08:51:29;;;;;;;8.07;4.47;;;9.60;78.80;;;;;;5032242;28;20529;-69
2024/01/28 08:53:54;;;;;;;8.35;4.95;;;9.60;78.70;;;;;;5014106;28;20092;-69
2024/01/28 08:56:20;;;;;;;8.88;4.85;;;9.60;78.70;;;;;;5015708;28;20140;-68
2024/01/28 08:58:46;;;;;;;7.65;4.32;;;9.60;78.80;;;;;;5029111;28;20045;-69
2024/01/28 09:01:13;;;;;;;8.85;5.03;;;9.60;78.80;;;;;;5008982;28;20077;-69
2024/01/28 09:03:39;;;;;;;6.95;4.50;;;9.60;78.80;;;;;;4999742;28;20045;-69
2024/01/28 09:06:06;;;;;;;8.38;4.20;;;9.60;78.80;;;;;;5015856;28;20079;-69
2024/01/28 09:08:32;;;;;;;7.43;5.15;;;9.60;78.80;;;;;;5014332;28;20496;-69
2024/01/28 09:10:58;;;;;;;7.72;5.07;;;9.60;79.60;;;;;;5008218;28;20049;-69
2024/01/28 09:13:24;;;;;;;5.60;3.90;;;9.60;78.80;;;;;;5008217;28;20045;-69
2024/01/28 09:15:50;;;;;;;7.22;4.72;;;9.60;78.70;;;;;;5015511;28;20037;-69
2024/01/28 09:18:16;;;;;;;7.97;4.68;;;9.60;78.70;;;;;;5015226;28;20037;-69
2024/01/28 09:20:41;;;;;;;8.02;4.00;;;9.60;78.70;;;;;;4999078;28;20505;-69
2024/01/28 09:23:07;;;;;;;7.57;4.53;;;9.60;78.70;;;;;;5014390;28;20103;-69
2024/01/28 09:25:33;;;;;;;5.80;4.45;;;9.60;78.70;;;;;;5012539;28;20128;-69
2024/01/28 09:27:59;;;;;;;6.63;4.50;;;9.60;78.60;;;;;;5014664;28;20060;-69
2024/01/28 09:30:25;;;;;;;7.93;4.32;;;9.60;78.60;;;;;;5014057;28;20041;-69
2024/01/28 09:32:51;;;;;;;6.45;3.45;;;9.60;78.60;;;;;;4998359;28;20065;-68
2024/01/28 09:35:16;;;;;;;7.90;3.67;;;9.60;78.60;;;;;;5014438;28;20065;-69
2024/01/28 09:37:42;;;;;;;6.32;4.35;;;9.60;78.70;;;;;;5012754;28;20034;-69
2024/01/28 09:40:11;;;;;;;9.40;4.47;;;9.60;78.60;;;;;;4996847;28;20030;-69
2024/01/28 09:42:43;;;;;;;7.32;4.55;;;9.60;78.60;;;;;;5014221;28;20158;-68
2024/01/28 09:45:08;;;;;;;8.25;3.65;;;9.60;78.60;;;;;;5014335;28;20037;-69
2024/01/28 09:47:35;;;;;;;6.43;4.43;;;9.60;78.50;;;;;;5011317;28;20379;-68
2024/01/28 09:50:03;;;;;;;6.95;4.43;;;9.60;78.50;;;;;;5014706;28;20037;-69
2024/01/28 09:52:29;;;;;;;8.25;4.35;;;9.60;78.50;;;;;;5014097;28;20116;-69
2024/01/28 09:54:54;;;;;;;7.65;4.47;;;9.60;78.60;;;;;;5010505;28;20553;-69
2024/01/28 09:57:20;;;;;;;6.22;4.07;;;9.60;78.60;;;;;;5013878;28;20496;-69
2024/01/28 09:59:46;;;;;;;7.63;4.93;;;9.60;78.60;;;;;;5013879;28;20092;-69
2024/01/28 10:02:12;;;;;;;7.10;4.15;;;9.60;78.60;;;;;;5029964;28;20065;-69
2024/01/28 10:04:37;;;;;;;8.15;4.38;;;9.60;78.60;;;;;;5012127;28;20065;-69
2024/01/28 10:07:03;;;;;;;6.55;3.65;;;9.60;78.70;;;;;;5014212;28;20041;-69
2024/01/28 10:09:29;;;;;;;8.07;4.28;;;9.60;78.60;;;;;;5013573;28;20130;-69
2024/01/28 10:11:59;;;;;;;5.22;3.70;;;9.60;78.70;;;;;;5013774;28;20037;-69
2024/01/28 10:14:25;;;;;;;7.82;3.75;;;9.60;78.50;;;;;;5014440;28;20393;-69
2024/01/28 10:16:50;;;;;;;5.68;3.13;;;9.60;78.60;;;;;;5011985;28;20037;-69
2024/01/28 10:19:16;;;;;;;7.10;3.80;;;9.60;78.60;;;;;;5013435;28;20116;-69
2024/01/28 10:21:44;;;;;;;6.97;4.43;;;9.60;78.60;;;;;;5007487;28;20045;-70
2024/01/28 10:24:10;;;;;;;4.20;3.63;;;9.60;78.60;;;;;;5007617;28;20039;-69
2024/01/28 10:26:36;;;;;;;4.60;3.28;;;9.60;78.60;;;;;;5009776;28;20128;-70
2024/01/28 10:29:02;;;;;;;6.90;3.83;;;9.60;79.30;;;;;;5006251;28;20049;-69
2024/01/28 10:31:28;;;;;;;5.40;3.95;;;9.60;78.60;;;;;;5034326;28;20036;-71
2024/01/28 10:33:54;;;;;;;4.78;3.60;;;9.60;78.40;;;;;;5016091;28;20128;-71
2024/01/28 10:36:19;;;;;;;8.60;4.57;;;9.60;78.50;;;;;;5010947;28;20121;-71
2024/01/28 10:38:45;;;;;;;4.07;3.30;;;9.60;78.50;;;;;;4997156;28;20039;-71
2024/01/28 10:41:18;;;;;;;6.18;4.47;;;9.60;79.30;;;;;;5030777;28;20037;-71
2024/01/28 10:43:55;;;;;;;5.40;3.45;;;9.60;78.50;;;;;;4995547;28;20037;-71
2024/01/28 10:46:23;;;;;;;5.87;3.17;;;9.60;78.60;;;;;;5014071;28;20212;-71
2024/01/28 10:48:49;;;;;;;6.90;3.63;;;9.60;78.60;;;;;;5018491;28;20038;-71
2024/01/28 10:51:14;;;;;;;10.00;4.25;;;9.60;78.60;;;;;;4980636;28;20045;-71
2024/01/28 10:53:40;;;;;;;5.78;3.90;;;9.60;78.60;;;;;;4996429;28;20053;-71
2024/01/28 10:56:06;;;;;;;6.40;4.13;;;9.60;78.60;;;;;;5058043;28;20049;-71
2024/01/28 10:58:32;;;;;;;5.85;3.80;;;9.60;78.60;;;;;;5012576;28;20037;-71
2024/01/28 11:00:57;;;;;;;7.93;3.78;;;9.60;78.60;;;;;;5013296;28;20045;-71
2024/01/28 11:03:23;;;;;;;4.50;3.55;;;9.60;78.70;;;;;;5008678;28;20064;-71
2024/01/28 11:05:48;;;;;;;8.02;3.33;;;9.70;78.80;;;;;;4994480;28;20041;-71
2024/01/28 11:08:14;;;;;;;4.10;2.83;;;9.70;78.80;;;;;;5012080;28;20323;-72
2024/01/28 11:10:40;;;;;;;5.72;3.22;;;9.70;78.80;;;;;;4997660;28;20429;-71
2024/01/28 11:13:06;;;;;;;6.70;3.67;;;9.70;78.80;;;;;;5015168;28;20040;-71
2024/01/28 11:15:32;;;;;;;5.60;2.97;;;9.70;78.90;;;;;;5013534;28;20041;-71
2024/01/28 11:18:00;;;;;;;4.10;2.60;;;9.70;78.90;;;;;;5008492;28;20038;-71
2024/01/28 11:20:30;;;;;;;4.50;3.00;;;9.70;78.90;;;;;;5010463;28;20052;-71
2024/01/28 11:22:58;;;;;;;6.53;2.83;;;9.70;79.00;;;;;;5012318;28;20109;-71
2024/01/28 11:25:25;;;;;;;5.47;3.15;;;9.70;79.00;;;;;;5004235;28;20049;-71
2024/01/28 11:27:52;;;;;;;3.25;2.58;;;9.80;79.10;;;;;;5017523;28;20080;-71
2024/01/28 11:30:21;;;;;;;6.50;3.20;;;9.80;79.10;;;;;;5011185;28;20037;-71
2024/01/28 11:32:47;;;;;;;5.25;2.95;;;9.80;79.10;;;;;;5037659;28;20041;-72
2024/01/28 11:35:13;;;;;;;5.53;2.70;;;9.80;79.10;;;;;;5025311;28;20132;-71
2024/01/28 11:37:54;;;;;;;5.82;3.10;;;9.80;79.20;;;;;;5009103;28;20133;-71
2024/01/28 11:40:28;;;;;;;4.35;2.83;;;9.80;79.20;;;;;;5013431;28;20034;-71
2024/01/28 11:42:54;;;;;;;5.32;2.55;;;9.80;79.20;;;;;;4992180;28;20049;-71
2024/01/28 11:45:22;;;;;;;5.88;2.90;;;9.80;79.30;;;;;;4980626;28;20045;-71
2024/01/28 11:47:48;;;;;;;3.03;2.13;;;9.80;79.30;;;;;;5011319;28;20504;-71
2024/01/28 11:50:14;;;;;;;5.38;3.20;;;9.80;79.30;;;;;;5012363;28;20092;-71
2024/01/28 11:52:40;;;;;;;4.95;2.92;;;9.90;79.30;;;;;;5012060;28;20038;-71
2024/01/28 11:55:13;;;;;;;3.47;2.53;;;9.80;79.30;;;;;;5014932;28;20043;-71
2024/01/28 11:57:45;;;;;;;3.97;3.15;;;9.80;79.30;;;;;;5026342;28;20111;-71
2024/01/28 12:00:11;;;;;;;5.25;3.05;;;9.80;79.30;;;;;;5010406;28;20037;-71
2024/01/28 12:02:38;;;;;;;4.13;2.72;;;9.90;79.40;;;;;;5006590;28;20044;-70
2024/01/28 12:05:04;;;;;;;4.53;3.00;;;9.90;79.40;;;;;;5008693;28;20044;-71
2024/01/28 12:07:36;;;;;;;2.72;2.30;;;9.90;79.50;;;;;;5029604;28;20489;-71
2024/01/28 12:10:05;;;;;;;5.10;2.83;;;9.90;79.40;;;;;;5011724;28;20299;-71
2024/01/28 12:12:34;;;;;;;3.95;2.50;;;9.90;79.50;;;;;;5013166;28;20069;-70
2024/01/28 12:15:03;;;;;;;4.38;2.55;;;9.90;79.50;;;;;;5013673;28;20041;-70
2024/01/28 12:17:36;;;;;;;3.10;2.80;;;9.90;79.40;;;;;;5011968;28;20052;-70
2024/01/28 12:20:03;;;;;;;4.80;2.50;;;9.90;79.50;;;;;;5022889;28;20497;-70
2024/01/28 12:22:35;;;;;;;3.83;2.03;;;9.90;79.50;;;;;;4995262;28;20457;-70
2024/01/28 12:25:10;;;;;;;2.38;2.15;;;9.90;79.50;;;;;;5009746;28;20116;-70
2024/01/28 12:27:36;;;;;;;4.63;2.40;;;9.90;79.50;;;;;;5010487;28;20053;-70
2024/01/28 12:30:02;;;;;;;3.45;2.00;;;9.90;79.60;;;;;;5015072;28;20037;-70
2024/01/28 12:32:28;;;;;;;4.22;2.40;;;10.00;79.60;;;;;;5014629;28;20432;-70
2024/01/28 12:34:54;;;;;;;4.45;2.47;;;10.00;79.70;;;;;;4994757;28;20103;-70
2024/01/28 12:37:23;;;;;;;4.75;2.60;;;10.00;79.70;;;;;;5030813;28;20063;-70
2024/01/28 12:39:49;;;;;;;4.43;2.67;;;10.00;79.70;;;;;;5014793;28;20460;-70
2024/01/28 12:42:18;;;;;;;2.60;2.00;;;10.00;79.80;;;;;;5029624;28;20060;-70
2024/01/28 12:44:44;;;;;;;4.30;2.53;;;10.00;79.80;;;;;;5032279;28;20041;-70